sensor_id;sensor_type;location;lat;lon;timestamp;P1;durP1;ratioP1;P2;durP2;ratioP2
11425;SDS011;5769;47.998;7.788;2022-10-03T00:00:08;85.70;;;29.10;;
11425;SDS011;5769;47.998;7.788;2022-10-03T00:02:52;85.87;;;29.07;;
11425;SDS011;5769;47.998;7.788;2022-10-03T00:05:41;85.70;;;28.73;;
11425;SDS011;5769;47.998;7.788;2022-10-03T00:08:20;85.83;;;29.10;;
11425;SDS011;5769;47.998;7.788;2022-10-03T00:10:59;86.17;;;28.70;;
11425;SDS011;5769;47.998;7.788;2022-10-03T00:13:37;85.90;;;28.73;;
11425;SDS011;5769;47.998;7.788;2022-10-03T00:16:09;85.67;;;28.80;;
11425;SDS011;5769;47.998;7.788;2022-10-03T00:18:50;85.50;;;28.90;;
11425;SDS011;5769;47.998;7.788;2022-10-03T00:21:29;85.70;;;29.03;;
11425;SDS011;5769;47.998;7.788;2022-10-03T00:24:18;85.80;;;29.00;;
11425;SDS011;5769;47.998;7.788;2022-10-03T00:26:53;85.87;;;28.70;;
11425;SDS011;5769;47.998;7.788;2022-10-03T00:29:41;85.70;;;28.80;;
11425;SDS011;5769;47.998;7.788;2022-10-03T00:32:27;85.87;;;29.20;;
11425;SDS011;5769;47.998;7.788;2022-10-03T00:35:03;86.03;;;29.20;;
11425;SDS011;5769;47.998;7.788;2022-10-03T00:37:40;85.97;;;29.10;;
11425;SDS011;5769;47.998;7.788;2022-10-03T00:49:07;88.30;;;28.50;;
11425;SDS011;5769;47.998;7.788;2022-10-03T00:51:54;88.97;;;28.67;;
11425;SDS011;5769;47.998;7.788;2022-10-03T00:54:37;87.90;;;28.47;;
11425;SDS011;5769;47.998;7.788;2022-10-03T00:57:22;86.60;;;28.70;;
11425;SDS011;5769;47.998;7.788;2022-10-03T01:00:10;86.50;;;28.80;;
11425;SDS011;5769;47.998;7.788;2022-10-03T01:03:03;86.50;;;28.90;;
11425;SDS011;5769;47.998;7.788;2022-10-03T01:05:47;86.40;;;28.67;;
11425;SDS011;5769;47.998;7.788;2022-10-03T01:11:40;86.27;;;28.73;;
11425;SDS011;5769;47.998;7.788;2022-10-03T01:14:22;86.27;;;28.67;;
11425;SDS011;5769;47.998;7.788;2022-10-03T01:17:11;86.00;;;29.10;;
11425;SDS011;5769;47.998;7.788;2022-10-03T01:19:57;86.20;;;29.03;;
11425;SDS011;5769;47.998;7.788;2022-10-03T01:22:49;86.20;;;29.00;;
11425;SDS011;5769;47.998;7.788;2022-10-03T01:25:37;86.10;;;28.60;;
11425;SDS011;5769;47.998;7.788;2022-10-03T01:31:27;86.40;;;28.90;;
11425;SDS011;5769;47.998;7.788;2022-10-03T01:34:10;86.53;;;28.63;;
11425;SDS011;5769;47.998;7.788;2022-10-03T01:36:49;86.50;;;28.50;;
11425;SDS011;5769;47.998;7.788;2022-10-03T01:39:25;86.53;;;28.90;;
11425;SDS011;5769;47.998;7.788;2022-10-03T01:41:58;86.87;;;28.57;;
11425;SDS011;5769;47.998;7.788;2022-10-03T01:44:37;87.70;;;28.80;;
11425;SDS011;5769;47.998;7.788;2022-10-03T01:47:18;87.20;;;28.47;;
11425;SDS011;5769;47.998;7.788;2022-10-03T01:49:52;87.23;;;28.80;;
11425;SDS011;5769;47.998;7.788;2022-10-03T01:52:26;87.40;;;28.73;;
11425;SDS011;5769;47.998;7.788;2022-10-03T01:55:05;87.30;;;28.80;;
11425;SDS011;5769;47.998;7.788;2022-10-03T01:57:47;88.00;;;28.70;;
11425;SDS011;5769;47.998;7.788;2022-10-03T02:00:22;87.77;;;28.33;;
11425;SDS011;5769;47.998;7.788;2022-10-03T02:02:52;87.60;;;28.63;;
11425;SDS011;5769;47.998;7.788;2022-10-03T02:05:33;87.80;;;28.50;;
11425;SDS011;5769;47.998;7.788;2022-10-03T02:08:07;88.07;;;28.43;;
11425;SDS011;5769;47.998;7.788;2022-10-03T02:10:43;88.00;;;28.80;;
11425;SDS011;5769;47.998;7.788;2022-10-03T02:13:16;88.20;;;28.63;;
11425;SDS011;5769;47.998;7.788;2022-10-03T02:15:56;87.93;;;28.73;;
11425;SDS011;5769;47.998;7.788;2022-10-03T02:18:35;87.70;;;28.37;;
11425;SDS011;5769;47.998;7.788;2022-10-03T02:21:10;88.07;;;28.70;;
11425;SDS011;5769;47.998;7.788;2022-10-03T02:23:43;87.80;;;28.70;;
11425;SDS011;5769;47.998;7.788;2022-10-03T02:26:19;87.80;;;28.53;;
11425;SDS011;5769;47.998;7.788;2022-10-03T02:29:02;87.80;;;28.40;;
11425;SDS011;5769;47.998;7.788;2022-10-03T02:34:50;87.50;;;28.37;;
11425;SDS011;5769;47.998;7.788;2022-10-03T02:37:48;87.60;;;28.77;;
11425;SDS011;5769;47.998;7.788;2022-10-03T02:43:47;89.70;;;28.60;;
11425;SDS011;5769;47.998;7.788;2022-10-03T02:46:43;88.80;;;28.77;;
11425;SDS011;5769;47.998;7.788;2022-10-03T02:55:28;88.30;;;28.80;;
11425;SDS011;5769;47.998;7.788;2022-10-03T03:01:42;88.30;;;28.63;;
11425;SDS011;5769;47.998;7.788;2022-10-03T03:07:26;88.50;;;28.80;;
11425;SDS011;5769;47.998;7.788;2022-10-03T03:10:27;88.70;;;28.70;;
11425;SDS011;5769;47.998;7.788;2022-10-03T03:13:20;88.20;;;28.47;;
11425;SDS011;5769;47.998;7.788;2022-10-03T03:19:10;88.90;;;28.70;;
11425;SDS011;5769;47.998;7.788;2022-10-03T03:21:51;90.23;;;28.13;;
11425;SDS011;5769;47.998;7.788;2022-10-03T03:24:28;90.27;;;28.83;;
11425;SDS011;5769;47.998;7.788;2022-10-03T03:27:16;89.10;;;28.67;;
11425;SDS011;5769;47.998;7.788;2022-10-03T03:29:57;88.97;;;28.37;;
11425;SDS011;5769;47.998;7.788;2022-10-03T03:32:35;89.20;;;28.70;;
11425;SDS011;5769;47.998;7.788;2022-10-03T03:35:17;89.30;;;28.73;;
11425;SDS011;5769;47.998;7.788;2022-10-03T03:37:57;89.20;;;28.43;;
11425;SDS011;5769;47.998;7.788;2022-10-03T03:40:39;89.33;;;28.40;;
11425;SDS011;5769;47.998;7.788;2022-10-03T03:43:42;89.30;;;28.53;;
11425;SDS011;5769;47.998;7.788;2022-10-03T03:46:32;89.00;;;28.70;;
11425;SDS011;5769;47.998;7.788;2022-10-03T03:49:24;88.90;;;28.60;;
11425;SDS011;5769;47.998;7.788;2022-10-03T03:52:04;88.90;;;28.90;;
11425;SDS011;5769;47.998;7.788;2022-10-03T03:54:53;88.60;;;28.77;;
11425;SDS011;5769;47.998;7.788;2022-10-03T03:57:49;89.03;;;28.73;;
11425;SDS011;5769;47.998;7.788;2022-10-03T04:00:45;89.10;;;28.53;;
11425;SDS011;5769;47.998;7.788;2022-10-03T04:03:29;89.07;;;28.87;;
11425;SDS011;5769;47.998;7.788;2022-10-03T04:09:13;89.37;;;28.67;;
11425;SDS011;5769;47.998;7.788;2022-10-03T04:12:07;89.23;;;28.70;;
11425;SDS011;5769;47.998;7.788;2022-10-03T04:14:53;89.27;;;28.73;;
11425;SDS011;5769;47.998;7.788;2022-10-03T04:17:55;88.83;;;28.33;;
11425;SDS011;5769;47.998;7.788;2022-10-03T04:20:56;88.87;;;28.70;;
11425;SDS011;5769;47.998;7.788;2022-10-03T04:23:45;89.00;;;28.60;;
11425;SDS011;5769;47.998;7.788;2022-10-03T04:26:28;89.40;;;28.70;;
11425;SDS011;5769;47.998;7.788;2022-10-03T04:32:28;89.60;;;28.37;;
11425;SDS011;5769;47.998;7.788;2022-10-03T04:35:32;89.40;;;28.63;;
11425;SDS011;5769;47.998;7.788;2022-10-03T04:38:31;89.50;;;28.63;;
11425;SDS011;5769;47.998;7.788;2022-10-03T04:41:11;89.17;;;28.70;;
11425;SDS011;5769;47.998;7.788;2022-10-03T04:43:56;89.20;;;28.63;;
11425;SDS011;5769;47.998;7.788;2022-10-03T04:46:34;89.13;;;28.57;;
11425;SDS011;5769;47.998;7.788;2022-10-03T04:49:15;88.93;;;28.63;;
11425;SDS011;5769;47.998;7.788;2022-10-03T04:51:52;89.00;;;28.50;;
11425;SDS011;5769;47.998;7.788;2022-10-03T04:54:35;89.30;;;28.70;;
11425;SDS011;5769;47.998;7.788;2022-10-03T04:57:23;89.43;;;28.60;;
11425;SDS011;5769;47.998;7.788;2022-10-03T04:59:59;89.23;;;28.60;;
11425;SDS011;5769;47.998;7.788;2022-10-03T05:02:38;89.23;;;28.80;;
11425;SDS011;5769;47.998;7.788;2022-10-03T05:05:22;89.20;;;28.70;;
11425;SDS011;5769;47.998;7.788;2022-10-03T05:08:13;89.40;;;28.43;;
11425;SDS011;5769;47.998;7.788;2022-10-03T05:10:49;88.97;;;28.33;;
11425;SDS011;5769;47.998;7.788;2022-10-03T05:13:39;89.23;;;28.67;;
11425;SDS011;5769;47.998;7.788;2022-10-03T05:16:19;89.03;;;28.53;;
11425;SDS011;5769;47.998;7.788;2022-10-03T05:19:08;88.87;;;28.27;;
11425;SDS011;5769;47.998;7.788;2022-10-03T05:22:02;89.20;;;28.57;;
11425;SDS011;5769;47.998;7.788;2022-10-03T05:24:39;89.50;;;28.60;;
11425;SDS011;5769;47.998;7.788;2022-10-03T05:27:22;89.03;;;28.33;;
11425;SDS011;5769;47.998;7.788;2022-10-03T05:30:01;88.93;;;28.73;;
11425;SDS011;5769;47.998;7.788;2022-10-03T05:32:32;88.90;;;28.60;;
11425;SDS011;5769;47.998;7.788;2022-10-03T05:35:12;89.13;;;28.77;;
11425;SDS011;5769;47.998;7.788;2022-10-03T05:38:15;88.70;;;28.63;;
11425;SDS011;5769;47.998;7.788;2022-10-03T05:40:50;88.80;;;28.90;;
11425;SDS011;5769;47.998;7.788;2022-10-03T05:43:33;88.57;;;28.73;;
11425;SDS011;5769;47.998;7.788;2022-10-03T05:46:12;88.00;;;28.60;;
11425;SDS011;5769;47.998;7.788;2022-10-03T05:48:47;88.30;;;28.53;;
11425;SDS011;5769;47.998;7.788;2022-10-03T05:51:26;88.27;;;28.70;;
11425;SDS011;5769;47.998;7.788;2022-10-03T05:54:32;88.53;;;28.50;;
11425;SDS011;5769;47.998;7.788;2022-10-03T05:57:33;88.40;;;28.70;;
11425;SDS011;5769;47.998;7.788;2022-10-03T06:00:17;89.00;;;28.73;;
11425;SDS011;5769;47.998;7.788;2022-10-03T06:02:53;89.23;;;28.53;;
11425;SDS011;5769;47.998;7.788;2022-10-03T06:05:59;88.70;;;28.73;;
11425;SDS011;5769;47.998;7.788;2022-10-03T06:08:45;88.87;;;28.47;;
11425;SDS011;5769;47.998;7.788;2022-10-03T06:11:40;89.03;;;28.67;;
11425;SDS011;5769;47.998;7.788;2022-10-03T06:14:27;88.73;;;28.80;;
11425;SDS011;5769;47.998;7.788;2022-10-03T06:17:30;88.60;;;28.57;;
11425;SDS011;5769;47.998;7.788;2022-10-03T06:20:17;88.40;;;28.67;;
11425;SDS011;5769;47.998;7.788;2022-10-03T06:23:24;88.30;;;28.43;;
11425;SDS011;5769;47.998;7.788;2022-10-03T06:26:24;88.47;;;28.57;;
11425;SDS011;5769;47.998;7.788;2022-10-03T06:32:22;89.00;;;28.60;;
11425;SDS011;5769;47.998;7.788;2022-10-03T06:35:26;89.13;;;28.73;;
11425;SDS011;5769;47.998;7.788;2022-10-03T06:38:32;88.60;;;28.60;;
11425;SDS011;5769;47.998;7.788;2022-10-03T06:42:00;89.20;;;28.57;;
11425;SDS011;5769;47.998;7.788;2022-10-03T06:45:07;89.00;;;28.70;;
11425;SDS011;5769;47.998;7.788;2022-10-03T06:48:14;89.00;;;28.60;;
11425;SDS011;5769;47.998;7.788;2022-10-03T06:54:11;88.77;;;28.37;;
11425;SDS011;5769;47.998;7.788;2022-10-03T06:57:00;89.17;;;28.80;;
11425;SDS011;5769;47.998;7.788;2022-10-03T06:59:48;89.00;;;28.43;;
11425;SDS011;5769;47.998;7.788;2022-10-03T07:12:05;89.00;;;28.60;;
11425;SDS011;5769;47.998;7.788;2022-10-03T07:15:31;89.03;;;28.43;;
11425;SDS011;5769;47.998;7.788;2022-10-03T07:18:23;89.30;;;28.70;;
11425;SDS011;5769;47.998;7.788;2022-10-03T07:24:14;89.20;;;28.40;;
11425;SDS011;5769;47.998;7.788;2022-10-03T07:27:09;89.33;;;28.40;;
11425;SDS011;5769;47.998;7.788;2022-10-03T07:35:50;90.50;;;28.50;;
11425;SDS011;5769;47.998;7.788;2022-10-03T07:39:10;89.43;;;28.60;;
11425;SDS011;5769;47.998;7.788;2022-10-03T07:45:03;89.80;;;28.53;;
11425;SDS011;5769;47.998;7.788;2022-10-03T07:48:08;89.40;;;28.33;;
11425;SDS011;5769;47.998;7.788;2022-10-03T07:51:13;89.30;;;28.43;;
11425;SDS011;5769;47.998;7.788;2022-10-03T08:00:15;89.47;;;28.63;;
11425;SDS011;5769;47.998;7.788;2022-10-03T08:06:15;89.87;;;28.70;;
11425;SDS011;5769;47.998;7.788;2022-10-03T08:12:01;89.43;;;28.37;;
11425;SDS011;5769;47.998;7.788;2022-10-03T08:15:08;89.83;;;28.53;;
11425;SDS011;5769;47.998;7.788;2022-10-03T08:21:09;89.67;;;28.67;;
11425;SDS011;5769;47.998;7.788;2022-10-03T08:26:53;90.30;;;28.47;;
11425;SDS011;5769;47.998;7.788;2022-10-03T08:29:43;90.30;;;28.43;;
11425;SDS011;5769;47.998;7.788;2022-10-03T08:32:59;90.17;;;28.43;;
11425;SDS011;5769;47.998;7.788;2022-10-03T08:38:56;89.90;;;28.33;;
11425;SDS011;5769;47.998;7.788;2022-10-03T08:51:01;90.20;;;28.33;;
11425;SDS011;5769;47.998;7.788;2022-10-03T08:56:55;89.90;;;28.53;;
11425;SDS011;5769;47.998;7.788;2022-10-03T09:00:04;89.87;;;28.57;;
11425;SDS011;5769;47.998;7.788;2022-10-03T09:09:12;90.40;;;28.43;;
11425;SDS011;5769;47.998;7.788;2022-10-03T09:18:20;90.30;;;28.47;;
11425;SDS011;5769;47.998;7.788;2022-10-03T09:24:32;90.53;;;28.67;;
11425;SDS011;5769;47.998;7.788;2022-10-03T09:30:49;90.73;;;28.60;;
11425;SDS011;5769;47.998;7.788;2022-10-03T09:33:39;90.80;;;28.27;;
11425;SDS011;5769;47.998;7.788;2022-10-03T09:45:43;91.03;;;28.50;;
11425;SDS011;5769;47.998;7.788;2022-10-03T09:48:53;90.67;;;28.53;;
11425;SDS011;5769;47.998;7.788;2022-10-03T09:51:47;90.37;;;28.47;;
11425;SDS011;5769;47.998;7.788;2022-10-03T09:58:15;90.90;;;28.30;;
11425;SDS011;5769;47.998;7.788;2022-10-03T10:01:21;90.80;;;28.67;;
11425;SDS011;5769;47.998;7.788;2022-10-03T10:13:34;90.87;;;28.30;;
11425;SDS011;5769;47.998;7.788;2022-10-03T10:19:35;91.07;;;28.67;;
11425;SDS011;5769;47.998;7.788;2022-10-03T10:22:30;91.20;;;28.67;;
11425;SDS011;5769;47.998;7.788;2022-10-03T10:25:36;91.10;;;28.53;;
11425;SDS011;5769;47.998;7.788;2022-10-03T10:28:39;91.00;;;28.70;;
11425;SDS011;5769;47.998;7.788;2022-10-03T10:31:45;90.80;;;28.23;;
11425;SDS011;5769;47.998;7.788;2022-10-03T10:35:01;90.73;;;28.57;;
11425;SDS011;5769;47.998;7.788;2022-10-03T10:47:26;91.37;;;28.33;;
11425;SDS011;5769;47.998;7.788;2022-10-03T10:50:29;91.47;;;28.63;;
11425;SDS011;5769;47.998;7.788;2022-10-03T11:00:09;91.13;;;28.50;;
11425;SDS011;5769;47.998;7.788;2022-10-03T11:12:10;92.90;;;28.20;;
11425;SDS011;5769;47.998;7.788;2022-10-03T11:31:08;92.63;;;28.10;;
11425;SDS011;5769;47.998;7.788;2022-10-03T11:37:03;93.07;;;28.27;;
11425;SDS011;5769;47.998;7.788;2022-10-03T11:39:38;93.03;;;28.17;;
11425;SDS011;5769;47.998;7.788;2022-10-03T11:42:17;93.13;;;28.40;;
11425;SDS011;5769;47.998;7.788;2022-10-03T11:44:54;93.17;;;28.23;;
11425;SDS011;5769;47.998;7.788;2022-10-03T11:47:44;93.63;;;28.20;;
11425;SDS011;5769;47.998;7.788;2022-10-03T11:56:27;93.57;;;28.20;;
11425;SDS011;5769;47.998;7.788;2022-10-03T12:02:20;94.47;;;28.30;;
11425;SDS011;5769;47.998;7.788;2022-10-03T12:05:35;94.10;;;28.53;;
11425;SDS011;5769;47.998;7.788;2022-10-03T12:08:21;94.40;;;28.50;;
11425;SDS011;5769;47.998;7.788;2022-10-03T12:11:15;94.20;;;28.30;;
11425;SDS011;5769;47.998;7.788;2022-10-03T12:13:47;94.50;;;28.43;;
11425;SDS011;5769;47.998;7.788;2022-10-03T12:16:25;94.97;;;28.57;;
11425;SDS011;5769;47.998;7.788;2022-10-03T12:19:01;95.50;;;28.30;;
11425;SDS011;5769;47.998;7.788;2022-10-03T12:21:43;94.93;;;28.57;;
11425;SDS011;5769;47.998;7.788;2022-10-03T12:24:24;94.90;;;28.30;;
11425;SDS011;5769;47.998;7.788;2022-10-03T12:26:54;95.07;;;28.53;;
11425;SDS011;5769;47.998;7.788;2022-10-03T12:29:31;94.53;;;28.40;;
11425;SDS011;5769;47.998;7.788;2022-10-03T12:32:09;94.53;;;28.53;;
11425;SDS011;5769;47.998;7.788;2022-10-03T12:34:49;94.63;;;28.57;;
11425;SDS011;5769;47.998;7.788;2022-10-03T12:37:38;95.47;;;28.53;;
11425;SDS011;5769;47.998;7.788;2022-10-03T12:40:23;95.03;;;28.40;;
11425;SDS011;5769;47.998;7.788;2022-10-03T12:43:01;95.57;;;28.57;;
11425;SDS011;5769;47.998;7.788;2022-10-03T12:45:38;95.40;;;28.30;;
11425;SDS011;5769;47.998;7.788;2022-10-03T12:51:27;95.27;;;28.30;;
11425;SDS011;5769;47.998;7.788;2022-10-03T12:54:26;95.40;;;28.60;;
11425;SDS011;5769;47.998;7.788;2022-10-03T12:57:25;96.10;;;28.63;;
11425;SDS011;5769;47.998;7.788;2022-10-03T13:00:05;96.10;;;28.30;;
11425;SDS011;5769;47.998;7.788;2022-10-03T13:02:39;95.90;;;28.50;;
11425;SDS011;5769;47.998;7.788;2022-10-03T13:05:23;95.80;;;28.40;;
11425;SDS011;5769;47.998;7.788;2022-10-03T13:08:29;96.07;;;28.37;;
11425;SDS011;5769;47.998;7.788;2022-10-03T13:11:21;95.87;;;28.40;;
11425;SDS011;5769;47.998;7.788;2022-10-03T13:14:09;95.93;;;28.33;;
11425;SDS011;5769;47.998;7.788;2022-10-03T13:16:51;95.87;;;28.40;;
11425;SDS011;5769;47.998;7.788;2022-10-03T13:19:24;95.77;;;28.60;;
11425;SDS011;5769;47.998;7.788;2022-10-03T13:22:00;95.60;;;28.40;;
11425;SDS011;5769;47.998;7.788;2022-10-03T13:24:37;95.80;;;28.30;;
11425;SDS011;5769;47.998;7.788;2022-10-03T13:27:13;95.93;;;28.60;;
11425;SDS011;5769;47.998;7.788;2022-10-03T13:30:00;96.47;;;28.67;;
11425;SDS011;5769;47.998;7.788;2022-10-03T13:32:31;96.10;;;28.40;;
11425;SDS011;5769;47.998;7.788;2022-10-03T13:35:15;96.40;;;28.60;;
11425;SDS011;5769;47.998;7.788;2022-10-03T13:38:18;96.27;;;28.53;;
11425;SDS011;5769;47.998;7.788;2022-10-03T13:41:07;96.80;;;28.73;;
11425;SDS011;5769;47.998;7.788;2022-10-03T13:43:40;96.77;;;28.63;;
11425;SDS011;5769;47.998;7.788;2022-10-03T13:46:15;96.50;;;28.37;;
11425;SDS011;5769;47.998;7.788;2022-10-03T13:48:48;96.77;;;28.77;;
11425;SDS011;5769;47.998;7.788;2022-10-03T13:51:24;96.33;;;28.67;;
11425;SDS011;5769;47.998;7.788;2022-10-03T13:53:58;96.07;;;28.60;;
11425;SDS011;5769;47.998;7.788;2022-10-03T13:56:36;96.10;;;28.63;;
11425;SDS011;5769;47.998;7.788;2022-10-03T13:59:17;96.47;;;28.67;;
11425;SDS011;5769;47.998;7.788;2022-10-03T14:02:12;96.47;;;28.60;;
11425;SDS011;5769;47.998;7.788;2022-10-03T14:05:05;96.80;;;28.50;;
11425;SDS011;5769;47.998;7.788;2022-10-03T14:07:46;96.83;;;28.50;;
11425;SDS011;5769;47.998;7.788;2022-10-03T14:10:24;96.80;;;28.47;;
11425;SDS011;5769;47.998;7.788;2022-10-03T14:13:16;96.53;;;28.40;;
11425;SDS011;5769;47.998;7.788;2022-10-03T14:15:53;96.20;;;28.40;;
11425;SDS011;5769;47.998;7.788;2022-10-03T14:18:36;95.70;;;28.33;;
11425;SDS011;5769;47.998;7.788;2022-10-03T14:21:28;95.17;;;28.37;;
11425;SDS011;5769;47.998;7.788;2022-10-03T14:27:07;96.30;;;28.30;;
11425;SDS011;5769;47.998;7.788;2022-10-03T14:29:46;96.40;;;28.70;;
11425;SDS011;5769;47.998;7.788;2022-10-03T14:32:24;96.17;;;28.53;;
11425;SDS011;5769;47.998;7.788;2022-10-03T14:34:57;96.60;;;28.50;;
11425;SDS011;5769;47.998;7.788;2022-10-03T14:37:32;96.67;;;28.50;;
11425;SDS011;5769;47.998;7.788;2022-10-03T14:40:14;96.37;;;28.40;;
11425;SDS011;5769;47.998;7.788;2022-10-03T14:42:51;96.20;;;28.40;;
11425;SDS011;5769;47.998;7.788;2022-10-03T14:45:32;96.50;;;28.70;;
11425;SDS011;5769;47.998;7.788;2022-10-03T14:48:06;96.13;;;28.67;;
11425;SDS011;5769;47.998;7.788;2022-10-03T14:50:38;95.73;;;28.30;;
11425;SDS011;5769;47.998;7.788;2022-10-03T14:53:13;95.60;;;28.53;;
11425;SDS011;5769;47.998;7.788;2022-10-03T14:55:45;95.27;;;28.33;;
11425;SDS011;5769;47.998;7.788;2022-10-03T14:58:20;95.43;;;28.40;;
11425;SDS011;5769;47.998;7.788;2022-10-03T15:00:59;95.13;;;28.23;;
11425;SDS011;5769;47.998;7.788;2022-10-03T15:03:29;95.73;;;28.50;;
11425;SDS011;5769;47.998;7.788;2022-10-03T15:06:29;96.10;;;28.30;;
11425;SDS011;5769;47.998;7.788;2022-10-03T15:09:01;95.43;;;28.40;;
11425;SDS011;5769;47.998;7.788;2022-10-03T15:11:35;95.37;;;28.33;;
11425;SDS011;5769;47.998;7.788;2022-10-03T15:14:11;95.60;;;28.57;;
11425;SDS011;5769;47.998;7.788;2022-10-03T15:16:44;95.80;;;28.30;;
11425;SDS011;5769;47.998;7.788;2022-10-03T15:19:28;95.43;;;28.17;;
11425;SDS011;5769;47.998;7.788;2022-10-03T15:22:05;95.03;;;28.40;;
11425;SDS011;5769;47.998;7.788;2022-10-03T15:24:43;95.07;;;28.30;;
11425;SDS011;5769;47.998;7.788;2022-10-03T15:27:12;95.27;;;28.27;;
11425;SDS011;5769;47.998;7.788;2022-10-03T15:29:45;95.87;;;28.33;;
11425;SDS011;5769;47.998;7.788;2022-10-03T15:32:19;95.43;;;28.47;;
11425;SDS011;5769;47.998;7.788;2022-10-03T15:34:52;96.47;;;28.30;;
11425;SDS011;5769;47.998;7.788;2022-10-03T15:37:30;96.10;;;28.40;;
11425;SDS011;5769;47.998;7.788;2022-10-03T15:40:02;96.37;;;28.30;;
11425;SDS011;5769;47.998;7.788;2022-10-03T15:42:42;96.07;;;28.33;;
11425;SDS011;5769;47.998;7.788;2022-10-03T15:45:18;95.87;;;28.57;;
11425;SDS011;5769;47.998;7.788;2022-10-03T15:47:54;95.67;;;28.27;;
11425;SDS011;5769;47.998;7.788;2022-10-03T15:50:24;95.67;;;28.20;;
11425;SDS011;5769;47.998;7.788;2022-10-03T15:52:55;95.50;;;28.47;;
11425;SDS011;5769;47.998;7.788;2022-10-03T15:55:25;95.63;;;28.50;;
11425;SDS011;5769;47.998;7.788;2022-10-03T15:57:57;95.20;;;28.47;;
11425;SDS011;5769;47.998;7.788;2022-10-03T16:00:36;96.00;;;28.47;;
11425;SDS011;5769;47.998;7.788;2022-10-03T16:03:07;96.50;;;28.50;;
11425;SDS011;5769;47.998;7.788;2022-10-03T16:05:41;96.73;;;28.60;;
11425;SDS011;5769;47.998;7.788;2022-10-03T16:08:25;96.47;;;28.57;;
11425;SDS011;5769;47.998;7.788;2022-10-03T16:11:04;96.57;;;28.40;;
11425;SDS011;5769;47.998;7.788;2022-10-03T16:13:37;96.83;;;28.50;;
11425;SDS011;5769;47.998;7.788;2022-10-03T16:16:09;96.70;;;28.53;;
11425;SDS011;5769;47.998;7.788;2022-10-03T16:18:47;97.23;;;28.40;;
11425;SDS011;5769;47.998;7.788;2022-10-03T16:21:31;97.20;;;28.60;;
11425;SDS011;5769;47.998;7.788;2022-10-03T16:24:14;96.97;;;28.50;;
11425;SDS011;5769;47.998;7.788;2022-10-03T16:26:48;96.43;;;28.30;;
11425;SDS011;5769;47.998;7.788;2022-10-03T16:29:21;96.63;;;28.40;;
11425;SDS011;5769;47.998;7.788;2022-10-03T16:31:58;96.10;;;28.53;;
11425;SDS011;5769;47.998;7.788;2022-10-03T16:34:33;96.67;;;28.40;;
11425;SDS011;5769;47.998;7.788;2022-10-03T16:37:05;96.80;;;28.47;;
11425;SDS011;5769;47.998;7.788;2022-10-03T16:39:48;97.00;;;28.30;;
11425;SDS011;5769;47.998;7.788;2022-10-03T16:42:20;97.30;;;28.30;;
11425;SDS011;5769;47.998;7.788;2022-10-03T16:44:56;97.13;;;28.33;;
11425;SDS011;5769;47.998;7.788;2022-10-03T16:47:33;97.10;;;28.50;;
11425;SDS011;5769;47.998;7.788;2022-10-03T16:50:18;97.03;;;28.30;;
11425;SDS011;5769;47.998;7.788;2022-10-03T16:52:53;97.23;;;28.30;;
11425;SDS011;5769;47.998;7.788;2022-10-03T16:55:25;96.87;;;28.30;;
11425;SDS011;5769;47.998;7.788;2022-10-03T16:57:56;96.43;;;28.23;;
11425;SDS011;5769;47.998;7.788;2022-10-03T17:00:29;96.07;;;28.50;;
11425;SDS011;5769;47.998;7.788;2022-10-03T17:03:13;96.60;;;28.40;;
11425;SDS011;5769;47.998;7.788;2022-10-03T17:05:45;96.20;;;28.20;;
11425;SDS011;5769;47.998;7.788;2022-10-03T17:08:18;96.43;;;28.57;;
11425;SDS011;5769;47.998;7.788;2022-10-03T17:10:51;96.93;;;28.33;;
11425;SDS011;5769;47.998;7.788;2022-10-03T17:13:22;97.20;;;28.30;;
11425;SDS011;5769;47.998;7.788;2022-10-03T17:16:00;97.60;;;28.50;;
11425;SDS011;5769;47.998;7.788;2022-10-03T17:18:35;97.53;;;28.40;;
11425;SDS011;5769;47.998;7.788;2022-10-03T17:21:13;97.27;;;28.40;;
11425;SDS011;5769;47.998;7.788;2022-10-03T17:23:52;96.97;;;28.30;;
11425;SDS011;5769;47.998;7.788;2022-10-03T17:26:29;96.80;;;28.30;;
11425;SDS011;5769;47.998;7.788;2022-10-03T17:29:02;96.80;;;28.50;;
11425;SDS011;5769;47.998;7.788;2022-10-03T17:31:38;96.87;;;28.40;;
11425;SDS011;5769;47.998;7.788;2022-10-03T17:34:14;97.60;;;28.53;;
11425;SDS011;5769;47.998;7.788;2022-10-03T17:36:57;97.00;;;28.23;;
11425;SDS011;5769;47.998;7.788;2022-10-03T17:39:54;97.07;;;28.40;;
11425;SDS011;5769;47.998;7.788;2022-10-03T17:42:41;97.00;;;28.40;;
11425;SDS011;5769;47.998;7.788;2022-10-03T17:47:57;97.50;;;28.50;;
11425;SDS011;5769;47.998;7.788;2022-10-03T17:50:33;97.43;;;28.60;;
11425;SDS011;5769;47.998;7.788;2022-10-03T17:53:05;97.00;;;28.50;;
11425;SDS011;5769;47.998;7.788;2022-10-03T17:55:43;96.60;;;28.47;;
11425;SDS011;5769;47.998;7.788;2022-10-03T17:58:11;96.80;;;28.20;;
11425;SDS011;5769;47.998;7.788;2022-10-03T18:00:53;97.23;;;28.37;;
11425;SDS011;5769;47.998;7.788;2022-10-03T18:03:37;97.40;;;28.40;;
11425;SDS011;5769;47.998;7.788;2022-10-03T18:09:19;97.63;;;28.30;;
11425;SDS011;5769;47.998;7.788;2022-10-03T18:12:09;97.20;;;28.30;;
11425;SDS011;5769;47.998;7.788;2022-10-03T18:17:54;97.30;;;28.33;;
11425;SDS011;5769;47.998;7.788;2022-10-03T18:20:40;96.90;;;28.50;;
11425;SDS011;5769;47.998;7.788;2022-10-03T18:23:17;96.57;;;28.43;;
11425;SDS011;5769;47.998;7.788;2022-10-03T18:25:51;96.57;;;28.43;;
11425;SDS011;5769;47.998;7.788;2022-10-03T18:28:30;96.77;;;28.30;;
11425;SDS011;5769;47.998;7.788;2022-10-03T18:30:59;96.50;;;28.30;;
11425;SDS011;5769;47.998;7.788;2022-10-03T18:33:40;96.93;;;28.33;;
11425;SDS011;5769;47.998;7.788;2022-10-03T18:36:21;96.63;;;28.50;;
11425;SDS011;5769;47.998;7.788;2022-10-03T18:38:52;96.67;;;28.43;;
11425;SDS011;5769;47.998;7.788;2022-10-03T18:41:25;98.30;;;28.50;;
11425;SDS011;5769;47.998;7.788;2022-10-03T18:44:00;97.03;;;28.53;;
11425;SDS011;5769;47.998;7.788;2022-10-03T18:46:32;96.63;;;28.30;;
11425;SDS011;5769;47.998;7.788;2022-10-03T18:49:05;96.90;;;28.43;;
11425;SDS011;5769;47.998;7.788;2022-10-03T18:51:43;97.47;;;28.43;;
11425;SDS011;5769;47.998;7.788;2022-10-03T18:54:21;97.90;;;28.50;;
11425;SDS011;5769;47.998;7.788;2022-10-03T18:57:02;98.27;;;28.40;;
11425;SDS011;5769;47.998;7.788;2022-10-03T18:59:42;97.87;;;28.30;;
11425;SDS011;5769;47.998;7.788;2022-10-03T19:02:20;97.97;;;28.33;;
11425;SDS011;5769;47.998;7.788;2022-10-03T19:04:52;97.73;;;28.40;;
11425;SDS011;5769;47.998;7.788;2022-10-03T19:07:24;97.57;;;28.57;;
11425;SDS011;5769;47.998;7.788;2022-10-03T19:13:02;97.30;;;28.30;;
11425;SDS011;5769;47.998;7.788;2022-10-03T19:15:42;97.07;;;28.30;;
11425;SDS011;5769;47.998;7.788;2022-10-03T19:18:40;97.10;;;28.20;;
11425;SDS011;5769;47.998;7.788;2022-10-03T19:21:13;97.20;;;28.50;;
11425;SDS011;5769;47.998;7.788;2022-10-03T19:23:50;97.43;;;28.33;;
11425;SDS011;5769;47.998;7.788;2022-10-03T19:26:27;96.97;;;28.30;;
11425;SDS011;5769;47.998;7.788;2022-10-03T19:29:00;96.80;;;28.30;;
11425;SDS011;5769;47.998;7.788;2022-10-03T19:31:32;97.20;;;28.50;;
11425;SDS011;5769;47.998;7.788;2022-10-03T19:34:10;97.13;;;28.30;;
11425;SDS011;5769;47.998;7.788;2022-10-03T19:36:45;97.03;;;28.40;;
11425;SDS011;5769;47.998;7.788;2022-10-03T19:39:21;97.10;;;28.53;;
11425;SDS011;5769;47.998;7.788;2022-10-03T19:41:52;96.97;;;28.40;;
11425;SDS011;5769;47.998;7.788;2022-10-03T19:44:50;97.33;;;28.60;;
11425;SDS011;5769;47.998;7.788;2022-10-03T19:47:24;97.00;;;28.30;;
11425;SDS011;5769;47.998;7.788;2022-10-03T19:50:06;97.37;;;28.30;;